sensor_id;sensor_type;location;lat;lon;timestamp;P1;durP1;ratioP1;P2;durP2;ratioP2
22007;SDS011;11168;56.976;24.168;2022-12-20T00:01:23;35.25;;;13.43;;
22007;SDS011;11168;56.976;24.168;2022-12-20T00:03:52;28.05;;;10.18;;
22007;SDS011;11168;56.976;24.168;2022-12-20T00:06:21;31.08;;;11.85;;
22007;SDS011;11168;56.976;24.168;2022-12-20T00:08:53;30.52;;;12.10;;
22007;SDS011;11168;56.976;24.168;2022-12-20T00:11:21;30.60;;;11.73;;
22007;SDS011;11168;56.976;24.168;2022-12-20T00:13:48;36.13;;;12.95;;
22007;SDS011;11168;56.976;24.168;2022-12-20T00:16:16;30.70;;;11.90;;
22007;SDS011;11168;56.976;24.168;2022-12-20T00:18:46;33.05;;;12.07;;
22007;SDS011;11168;56.976;24.168;2022-12-20T00:21:16;30.65;;;11.98;;
22007;SDS011;11168;56.976;24.168;2022-12-20T00:23:43;36.05;;;13.32;;
22007;SDS011;11168;56.976;24.168;2022-12-20T00:26:11;34.65;;;13.43;;
22007;SDS011;11168;56.976;24.168;2022-12-20T00:28:40;30.05;;;12.15;;
22007;SDS011;11168;56.976;24.168;2022-12-20T00:31:08;28.85;;;12.50;;
22007;SDS011;11168;56.976;24.168;2022-12-20T00:33:37;33.95;;;12.73;;
22007;SDS011;11168;56.976;24.168;2022-12-20T00:36:05;38.78;;;13.13;;
22007;SDS011;11168;56.976;24.168;2022-12-20T00:38:33;30.63;;;12.20;;
22007;SDS011;11168;56.976;24.168;2022-12-20T00:41:01;35.13;;;13.73;;
22007;SDS011;11168;56.976;24.168;2022-12-20T00:43:32;34.65;;;12.85;;
22007;SDS011;11168;56.976;24.168;2022-12-20T00:45:59;33.42;;;13.00;;
22007;SDS011;11168;56.976;24.168;2022-12-20T00:48:27;33.97;;;13.52;;
22007;SDS011;11168;56.976;24.168;2022-12-20T00:51:00;38.03;;;13.35;;
22007;SDS011;11168;56.976;24.168;2022-12-20T00:53:35;35.43;;;12.97;;
22007;SDS011;11168;56.976;24.168;2022-12-20T00:56:03;34.97;;;13.45;;
22007;SDS011;11168;56.976;24.168;2022-12-20T00:58:31;32.45;;;13.25;;
22007;SDS011;11168;56.976;24.168;2022-12-20T01:00:59;36.30;;;13.02;;
22007;SDS011;11168;56.976;24.168;2022-12-20T01:03:26;32.28;;;12.70;;
22007;SDS011;11168;56.976;24.168;2022-12-20T01:06:00;35.63;;;13.23;;
22007;SDS011;11168;56.976;24.168;2022-12-20T01:08:28;36.17;;;13.93;;
22007;SDS011;11168;56.976;24.168;2022-12-20T01:11:00;30.05;;;12.02;;
22007;SDS011;11168;56.976;24.168;2022-12-20T01:13:38;31.67;;;11.77;;
22007;SDS011;11168;56.976;24.168;2022-12-20T01:16:11;36.00;;;13.23;;
22007;SDS011;11168;56.976;24.168;2022-12-20T01:18:40;25.80;;;10.65;;
22007;SDS011;11168;56.976;24.168;2022-12-20T01:21:08;37.17;;;13.40;;
22007;SDS011;11168;56.976;24.168;2022-12-20T01:23:38;32.45;;;12.80;;
22007;SDS011;11168;56.976;24.168;2022-12-20T01:26:07;30.95;;;12.02;;
22007;SDS011;11168;56.976;24.168;2022-12-20T01:28:37;31.25;;;12.60;;
22007;SDS011;11168;56.976;24.168;2022-12-20T01:31:06;30.35;;;12.15;;
22007;SDS011;11168;56.976;24.168;2022-12-20T01:33:34;37.60;;;13.52;;
22007;SDS011;11168;56.976;24.168;2022-12-20T01:36:06;30.10;;;12.18;;
22007;SDS011;11168;56.976;24.168;2022-12-20T01:38:36;32.97;;;12.95;;
22007;SDS011;11168;56.976;24.168;2022-12-20T01:41:03;33.50;;;13.20;;
22007;SDS011;11168;56.976;24.168;2022-12-20T01:43:48;32.85;;;12.93;;
22007;SDS011;11168;56.976;24.168;2022-12-20T01:46:18;31.23;;;12.63;;
22007;SDS011;11168;56.976;24.168;2022-12-20T01:48:52;30.60;;;13.00;;
22007;SDS011;11168;56.976;24.168;2022-12-20T01:51:24;33.40;;;13.48;;
22007;SDS011;11168;56.976;24.168;2022-12-20T01:53:55;31.42;;;12.30;;
22007;SDS011;11168;56.976;24.168;2022-12-20T01:56:27;38.47;;;14.98;;
22007;SDS011;11168;56.976;24.168;2022-12-20T01:58:54;34.90;;;14.45;;
22007;SDS011;11168;56.976;24.168;2022-12-20T02:01:22;34.53;;;14.20;;
22007;SDS011;11168;56.976;24.168;2022-12-20T02:03:51;33.38;;;12.65;;
22007;SDS011;11168;56.976;24.168;2022-12-20T02:06:20;32.10;;;11.88;;
22007;SDS011;11168;56.976;24.168;2022-12-20T02:08:51;31.30;;;14.35;;
22007;SDS011;11168;56.976;24.168;2022-12-20T02:14:03;34.28;;;13.82;;
22007;SDS011;11168;56.976;24.168;2022-12-20T02:16:52;33.10;;;13.07;;
22007;SDS011;11168;56.976;24.168;2022-12-20T02:25:04;39.00;;;13.68;;
22007;SDS011;11168;56.976;24.168;2022-12-20T02:28:00;35.03;;;12.77;;
22007;SDS011;11168;56.976;24.168;2022-12-20T02:30:37;36.08;;;13.63;;
22007;SDS011;11168;56.976;24.168;2022-12-20T02:33:10;36.03;;;13.18;;
22007;SDS011;11168;56.976;24.168;2022-12-20T02:35:39;36.78;;;14.25;;
22007;SDS011;11168;56.976;24.168;2022-12-20T02:38:30;36.60;;;14.20;;
22007;SDS011;11168;56.976;24.168;2022-12-20T02:41:12;37.97;;;14.13;;
22007;SDS011;11168;56.976;24.168;2022-12-20T02:43:40;34.65;;;14.20;;
22007;SDS011;11168;56.976;24.168;2022-12-20T02:46:27;32.83;;;12.15;;
22007;SDS011;11168;56.976;24.168;2022-12-20T02:48:57;39.35;;;14.55;;
22007;SDS011;11168;56.976;24.168;2022-12-20T02:51:28;38.85;;;14.80;;
22007;SDS011;11168;56.976;24.168;2022-12-20T02:53:58;33.45;;;14.40;;
22007;SDS011;11168;56.976;24.168;2022-12-20T02:56:31;36.30;;;14.75;;
22007;SDS011;11168;56.976;24.168;2022-12-20T02:59:20;42.22;;;15.57;;
22007;SDS011;11168;56.976;24.168;2022-12-20T03:01:55;38.03;;;15.02;;
22007;SDS011;11168;56.976;24.168;2022-12-20T03:04:24;35.17;;;14.27;;
22007;SDS011;11168;56.976;24.168;2022-12-20T03:07:04;45.05;;;15.65;;
22007;SDS011;11168;56.976;24.168;2022-12-20T03:09:36;39.92;;;14.90;;
22007;SDS011;11168;56.976;24.168;2022-12-20T03:12:06;36.00;;;14.88;;
22007;SDS011;11168;56.976;24.168;2022-12-20T03:14:34;40.03;;;15.15;;
22007;SDS011;11168;56.976;24.168;2022-12-20T03:17:01;38.90;;;15.40;;
22007;SDS011;11168;56.976;24.168;2022-12-20T03:19:28;37.65;;;15.77;;
22007;SDS011;11168;56.976;24.168;2022-12-20T03:21:55;39.08;;;15.07;;
22007;SDS011;11168;56.976;24.168;2022-12-20T03:24:22;36.95;;;14.98;;
22007;SDS011;11168;56.976;24.168;2022-12-20T03:26:50;37.20;;;14.93;;
22007;SDS011;11168;56.976;24.168;2022-12-20T03:29:17;42.13;;;15.68;;
22007;SDS011;11168;56.976;24.168;2022-12-20T03:31:44;35.30;;;14.75;;
22007;SDS011;11168;56.976;24.168;2022-12-20T03:34:11;37.17;;;15.73;;
22007;SDS011;11168;56.976;24.168;2022-12-20T03:36:38;39.15;;;15.85;;
22007;SDS011;11168;56.976;24.168;2022-12-20T03:39:04;40.17;;;14.98;;
22007;SDS011;11168;56.976;24.168;2022-12-20T03:41:31;36.63;;;14.27;;
22007;SDS011;11168;56.976;24.168;2022-12-20T03:43:58;38.15;;;16.13;;
22007;SDS011;11168;56.976;24.168;2022-12-20T03:46:25;41.42;;;15.88;;
22007;SDS011;11168;56.976;24.168;2022-12-20T03:48:53;38.88;;;16.77;;
22007;SDS011;11168;56.976;24.168;2022-12-20T03:51:20;40.90;;;16.83;;
22007;SDS011;11168;56.976;24.168;2022-12-20T03:53:47;42.10;;;16.02;;
22007;SDS011;11168;56.976;24.168;2022-12-20T03:56:14;42.35;;;16.45;;
22007;SDS011;11168;56.976;24.168;2022-12-20T03:58:41;39.67;;;15.70;;
22007;SDS011;11168;56.976;24.168;2022-12-20T04:01:21;41.35;;;16.08;;
22007;SDS011;11168;56.976;24.168;2022-12-20T04:03:51;43.78;;;16.63;;
22007;SDS011;11168;56.976;24.168;2022-12-20T04:06:18;38.33;;;16.08;;
22007;SDS011;11168;56.976;24.168;2022-12-20T04:08:45;46.70;;;17.55;;
22007;SDS011;11168;56.976;24.168;2022-12-20T04:11:12;48.55;;;18.15;;
22007;SDS011;11168;56.976;24.168;2022-12-20T04:13:43;42.65;;;16.33;;
22007;SDS011;11168;56.976;24.168;2022-12-20T04:16:16;43.25;;;17.35;;
22007;SDS011;11168;56.976;24.168;2022-12-20T04:18:44;45.75;;;16.63;;
22007;SDS011;11168;56.976;24.168;2022-12-20T04:21:12;48.72;;;17.60;;
22007;SDS011;11168;56.976;24.168;2022-12-20T04:23:40;43.50;;;17.70;;
22007;SDS011;11168;56.976;24.168;2022-12-20T04:26:08;46.75;;;19.20;;
22007;SDS011;11168;56.976;24.168;2022-12-20T04:28:36;41.78;;;18.13;;
22007;SDS011;11168;56.976;24.168;2022-12-20T04:31:03;47.17;;;18.17;;
22007;SDS011;11168;56.976;24.168;2022-12-20T04:33:30;46.17;;;18.02;;
22007;SDS011;11168;56.976;24.168;2022-12-20T04:35:57;48.13;;;19.30;;
22007;SDS011;11168;56.976;24.168;2022-12-20T04:38:24;50.35;;;19.77;;
22007;SDS011;11168;56.976;24.168;2022-12-20T04:40:52;52.72;;;20.55;;
22007;SDS011;11168;56.976;24.168;2022-12-20T04:43:20;54.38;;;20.10;;
22007;SDS011;11168;56.976;24.168;2022-12-20T04:45:49;51.63;;;19.95;;
22007;SDS011;11168;56.976;24.168;2022-12-20T04:48:18;56.23;;;20.27;;
22007;SDS011;11168;56.976;24.168;2022-12-20T04:51:05;50.85;;;20.15;;
22007;SDS011;11168;56.976;24.168;2022-12-20T04:53:32;49.28;;;19.10;;
22007;SDS011;11168;56.976;24.168;2022-12-20T04:56:15;47.75;;;19.25;;
22007;SDS011;11168;56.976;24.168;2022-12-20T04:58:50;53.05;;;20.02;;
22007;SDS011;11168;56.976;24.168;2022-12-20T05:01:18;52.50;;;20.23;;
22007;SDS011;11168;56.976;24.168;2022-12-20T05:03:45;55.92;;;22.80;;
22007;SDS011;11168;56.976;24.168;2022-12-20T05:06:13;57.70;;;21.70;;
22007;SDS011;11168;56.976;24.168;2022-12-20T05:08:41;51.67;;;20.38;;
22007;SDS011;11168;56.976;24.168;2022-12-20T05:11:08;57.45;;;22.88;;
22007;SDS011;11168;56.976;24.168;2022-12-20T05:13:35;61.70;;;22.23;;
22007;SDS011;11168;56.976;24.168;2022-12-20T05:16:03;58.85;;;22.40;;
22007;SDS011;11168;56.976;24.168;2022-12-20T05:18:30;60.20;;;22.80;;
22007;SDS011;11168;56.976;24.168;2022-12-20T05:20:58;58.20;;;22.67;;
22007;SDS011;11168;56.976;24.168;2022-12-20T05:23:45;52.25;;;21.95;;
22007;SDS011;11168;56.976;24.168;2022-12-20T05:26:51;53.63;;;21.85;;
22007;SDS011;11168;56.976;24.168;2022-12-20T05:29:18;56.22;;;20.63;;
22007;SDS011;11168;56.976;24.168;2022-12-20T05:31:45;62.15;;;23.48;;
22007;SDS011;11168;56.976;24.168;2022-12-20T05:34:13;64.38;;;23.58;;
22007;SDS011;11168;56.976;24.168;2022-12-20T05:36:40;57.92;;;22.52;;
22007;SDS011;11168;56.976;24.168;2022-12-20T05:39:07;64.80;;;24.48;;
22007;SDS011;11168;56.976;24.168;2022-12-20T05:41:34;65.93;;;26.23;;
22007;SDS011;11168;56.976;24.168;2022-12-20T05:44:00;61.17;;;24.20;;
22007;SDS011;11168;56.976;24.168;2022-12-20T05:46:27;62.75;;;23.55;;
22007;SDS011;11168;56.976;24.168;2022-12-20T05:48:54;60.25;;;24.20;;
22007;SDS011;11168;56.976;24.168;2022-12-20T05:51:21;66.55;;;23.77;;
22007;SDS011;11168;56.976;24.168;2022-12-20T05:53:48;64.18;;;24.80;;
22007;SDS011;11168;56.976;24.168;2022-12-20T05:56:16;63.38;;;24.15;;
22007;SDS011;11168;56.976;24.168;2022-12-20T05:58:43;66.97;;;24.85;;
22007;SDS011;11168;56.976;24.168;2022-12-20T06:01:09;65.35;;;24.55;;
22007;SDS011;11168;56.976;24.168;2022-12-20T06:03:37;63.00;;;23.35;;
22007;SDS011;11168;56.976;24.168;2022-12-20T06:06:06;59.35;;;23.58;;
22007;SDS011;11168;56.976;24.168;2022-12-20T06:08:40;62.58;;;24.20;;
22007;SDS011;11168;56.976;24.168;2022-12-20T06:11:07;61.17;;;24.90;;
22007;SDS011;11168;56.976;24.168;2022-12-20T06:13:34;61.58;;;24.50;;
22007;SDS011;11168;56.976;24.168;2022-12-20T06:16:01;68.25;;;25.73;;
22007;SDS011;11168;56.976;24.168;2022-12-20T06:18:28;63.47;;;25.70;;
22007;SDS011;11168;56.976;24.168;2022-12-20T06:20:55;61.55;;;25.25;;
22007;SDS011;11168;56.976;24.168;2022-12-20T06:23:22;60.17;;;24.65;;
22007;SDS011;11168;56.976;24.168;2022-12-20T06:25:49;69.05;;;26.85;;
22007;SDS011;11168;56.976;24.168;2022-12-20T06:28:16;59.42;;;24.17;;
22007;SDS011;11168;56.976;24.168;2022-12-20T06:30:54;61.35;;;25.48;;
22007;SDS011;11168;56.976;24.168;2022-12-20T06:33:22;72.13;;;27.73;;
22007;SDS011;11168;56.976;24.168;2022-12-20T06:35:50;66.53;;;26.45;;
22007;SDS011;11168;56.976;24.168;2022-12-20T06:38:17;65.00;;;25.67;;
22007;SDS011;11168;56.976;24.168;2022-12-20T06:40:44;63.63;;;26.38;;
22007;SDS011;11168;56.976;24.168;2022-12-20T06:43:11;69.45;;;26.92;;
22007;SDS011;11168;56.976;24.168;2022-12-20T06:45:38;62.13;;;25.95;;
22007;SDS011;11168;56.976;24.168;2022-12-20T06:48:08;68.00;;;25.58;;
22007;SDS011;11168;56.976;24.168;2022-12-20T06:50:36;66.57;;;25.88;;
22007;SDS011;11168;56.976;24.168;2022-12-20T06:53:03;61.08;;;25.35;;
22007;SDS011;11168;56.976;24.168;2022-12-20T06:55:30;61.47;;;25.23;;
22007;SDS011;11168;56.976;24.168;2022-12-20T06:57:57;60.47;;;26.17;;
22007;SDS011;11168;56.976;24.168;2022-12-20T07:00:24;61.00;;;25.05;;
22007;SDS011;11168;56.976;24.168;2022-12-20T07:02:52;59.63;;;25.55;;
22007;SDS011;11168;56.976;24.168;2022-12-20T07:05:20;68.38;;;28.48;;
22007;SDS011;11168;56.976;24.168;2022-12-20T07:07:47;67.28;;;26.90;;
22007;SDS011;11168;56.976;24.168;2022-12-20T07:10:14;69.30;;;27.13;;
22007;SDS011;11168;56.976;24.168;2022-12-20T07:12:41;63.10;;;25.42;;
22007;SDS011;11168;56.976;24.168;2022-12-20T07:15:13;65.65;;;26.30;;
22007;SDS011;11168;56.976;24.168;2022-12-20T07:17:40;62.78;;;25.35;;
22007;SDS011;11168;56.976;24.168;2022-12-20T07:20:08;67.15;;;27.35;;
22007;SDS011;11168;56.976;24.168;2022-12-20T07:25:06;56.00;;;25.20;;
22007;SDS011;11168;56.976;24.168;2022-12-20T07:27:33;70.47;;;26.63;;
22007;SDS011;11168;56.976;24.168;2022-12-20T07:30:00;58.58;;;25.35;;
22007;SDS011;11168;56.976;24.168;2022-12-20T07:32:27;67.40;;;27.25;;
22007;SDS011;11168;56.976;24.168;2022-12-20T07:34:55;69.05;;;27.75;;
22007;SDS011;11168;56.976;24.168;2022-12-20T07:37:21;63.53;;;27.27;;
22007;SDS011;11168;56.976;24.168;2022-12-20T07:39:48;65.97;;;28.30;;
22007;SDS011;11168;56.976;24.168;2022-12-20T07:42:15;67.45;;;27.08;;
22007;SDS011;11168;56.976;24.168;2022-12-20T07:44:42;73.03;;;27.92;;
22007;SDS011;11168;56.976;24.168;2022-12-20T07:47:09;72.97;;;28.67;;
22007;SDS011;11168;56.976;24.168;2022-12-20T07:49:36;62.40;;;27.15;;
22007;SDS011;11168;56.976;24.168;2022-12-20T07:52:03;67.50;;;28.35;;
22007;SDS011;11168;56.976;24.168;2022-12-20T07:54:32;69.65;;;30.73;;
22007;SDS011;11168;56.976;24.168;2022-12-20T07:57:05;66.65;;;28.05;;
22007;SDS011;11168;56.976;24.168;2022-12-20T07:59:41;68.07;;;27.63;;
22007;SDS011;11168;56.976;24.168;2022-12-20T08:02:14;68.10;;;27.85;;
22007;SDS011;11168;56.976;24.168;2022-12-20T08:04:45;66.50;;;28.42;;
22007;SDS011;11168;56.976;24.168;2022-12-20T08:07:13;68.78;;;27.85;;
22007;SDS011;11168;56.976;24.168;2022-12-20T08:09:40;70.97;;;29.27;;
22007;SDS011;11168;56.976;24.168;2022-12-20T08:12:09;66.82;;;28.15;;
22007;SDS011;11168;56.976;24.168;2022-12-20T08:14:39;67.75;;;27.92;;
22007;SDS011;11168;56.976;24.168;2022-12-20T08:17:06;67.93;;;28.20;;
22007;SDS011;11168;56.976;24.168;2022-12-20T08:19:33;69.88;;;28.40;;
22007;SDS011;11168;56.976;24.168;2022-12-20T08:22:00;69.00;;;28.85;;
22007;SDS011;11168;56.976;24.168;2022-12-20T08:24:27;72.95;;;29.15;;
22007;SDS011;11168;56.976;24.168;2022-12-20T08:26:54;68.20;;;28.83;;
22007;SDS011;11168;56.976;24.168;2022-12-20T08:29:21;72.85;;;28.98;;
22007;SDS011;11168;56.976;24.168;2022-12-20T08:31:48;66.32;;;30.13;;
22007;SDS011;11168;56.976;24.168;2022-12-20T08:34:16;70.57;;;30.50;;
22007;SDS011;11168;56.976;24.168;2022-12-20T08:36:43;75.07;;;30.27;;
22007;SDS011;11168;56.976;24.168;2022-12-20T08:39:10;71.45;;;31.00;;
22007;SDS011;11168;56.976;24.168;2022-12-20T08:41:37;69.65;;;28.85;;
22007;SDS011;11168;56.976;24.168;2022-12-20T08:44:05;71.78;;;29.95;;
22007;SDS011;11168;56.976;24.168;2022-12-20T08:46:32;72.60;;;30.90;;
22007;SDS011;11168;56.976;24.168;2022-12-20T08:49:03;76.57;;;32.50;;
22007;SDS011;11168;56.976;24.168;2022-12-20T08:51:30;78.03;;;31.73;;
22007;SDS011;11168;56.976;24.168;2022-12-20T08:53:58;72.20;;;29.52;;
22007;SDS011;11168;56.976;24.168;2022-12-20T08:56:25;79.15;;;31.35;;
22007;SDS011;11168;56.976;24.168;2022-12-20T08:58:52;72.25;;;28.83;;
22007;SDS011;11168;56.976;24.168;2022-12-20T09:01:19;70.97;;;30.17;;
22007;SDS011;11168;56.976;24.168;2022-12-20T09:03:48;67.78;;;29.25;;
22007;SDS011;11168;56.976;24.168;2022-12-20T09:06:17;80.05;;;31.35;;
22007;SDS011;11168;56.976;24.168;2022-12-20T09:08:45;70.70;;;29.88;;
22007;SDS011;11168;56.976;24.168;2022-12-20T09:11:19;76.97;;;31.38;;
22007;SDS011;11168;56.976;24.168;2022-12-20T09:13:48;74.38;;;29.98;;
22007;SDS011;11168;56.976;24.168;2022-12-20T09:16:19;68.72;;;29.17;;
22007;SDS011;11168;56.976;24.168;2022-12-20T09:18:51;52.95;;;21.25;;
22007;SDS011;11168;56.976;24.168;2022-12-20T09:21:27;71.03;;;29.40;;
22007;SDS011;11168;56.976;24.168;2022-12-20T09:23:55;70.75;;;31.98;;
22007;SDS011;11168;56.976;24.168;2022-12-20T09:26:22;62.40;;;27.70;;
22007;SDS011;11168;56.976;24.168;2022-12-20T09:28:50;65.35;;;28.10;;
22007;SDS011;11168;56.976;24.168;2022-12-20T09:31:18;65.10;;;29.83;;
22007;SDS011;11168;56.976;24.168;2022-12-20T09:33:47;64.10;;;28.08;;
22007;SDS011;11168;56.976;24.168;2022-12-20T09:36:15;67.68;;;27.60;;
22007;SDS011;11168;56.976;24.168;2022-12-20T09:38:44;66.97;;;28.35;;
22007;SDS011;11168;56.976;24.168;2022-12-20T09:44:02;64.85;;;27.95;;
22007;SDS011;11168;56.976;24.168;2022-12-20T09:47:06;61.67;;;27.85;;
22007;SDS011;11168;56.976;24.168;2022-12-20T09:49:42;75.13;;;30.20;;
22007;SDS011;11168;56.976;24.168;2022-12-20T09:52:18;74.70;;;29.88;;
22007;SDS011;11168;56.976;24.168;2022-12-20T10:02:44;70.20;;;28.85;;
22007;SDS011;11168;56.976;24.168;2022-12-20T10:05:34;69.45;;;29.80;;
22007;SDS011;11168;56.976;24.168;2022-12-20T10:08:17;65.77;;;29.77;;
22007;SDS011;11168;56.976;24.168;2022-12-20T10:10:56;67.05;;;29.88;;
22007;SDS011;11168;56.976;24.168;2022-12-20T10:13:52;72.30;;;30.85;;
22007;SDS011;11168;56.976;24.168;2022-12-20T10:24:32;72.78;;;30.90;;
22007;SDS011;11168;56.976;24.168;2022-12-20T10:27:09;72.00;;;31.25;;
22007;SDS011;11168;56.976;24.168;2022-12-20T10:29:42;67.00;;;30.60;;
22007;SDS011;11168;56.976;24.168;2022-12-20T10:32:12;65.15;;;29.83;;
22007;SDS011;11168;56.976;24.168;2022-12-20T10:34:54;70.22;;;30.58;;
22007;SDS011;11168;56.976;24.168;2022-12-20T10:38:01;67.80;;;29.48;;
22007;SDS011;11168;56.976;24.168;2022-12-20T10:40:40;65.95;;;28.58;;
22007;SDS011;11168;56.976;24.168;2022-12-20T10:43:39;69.47;;;30.23;;
22007;SDS011;11168;56.976;24.168;2022-12-20T10:46:09;63.20;;;28.67;;
22007;SDS011;11168;56.976;24.168;2022-12-20T10:48:39;61.22;;;28.13;;
22007;SDS011;11168;56.976;24.168;2022-12-20T10:58:59;61.17;;;28.50;;
22007;SDS011;11168;56.976;24.168;2022-12-20T11:01:30;62.38;;;28.13;;
22007;SDS011;11168;56.976;24.168;2022-12-20T11:04:00;61.47;;;27.25;;
22007;SDS011;11168;56.976;24.168;2022-12-20T11:14:27;63.85;;;28.33;;
22007;SDS011;11168;56.976;24.168;2022-12-20T11:22:46;55.10;;;26.60;;
22007;SDS011;11168;56.976;24.168;2022-12-20T11:25:31;58.75;;;26.73;;
22007;SDS011;11168;56.976;24.168;2022-12-20T11:41:47;63.25;;;27.40;;
22007;SDS011;11168;56.976;24.168;2022-12-20T11:54:04;54.47;;;26.58;;
22007;SDS011;11168;56.976;24.168;2022-12-20T12:04:31;54.65;;;25.88;;
22007;SDS011;11168;56.976;24.168;2022-12-20T12:07:02;60.58;;;26.52;;
22007;SDS011;11168;56.976;24.168;2022-12-20T12:09:36;48.95;;;24.75;;
22007;SDS011;11168;56.976;24.168;2022-12-20T12:18:08;57.08;;;27.63;;
22007;SDS011;11168;56.976;24.168;2022-12-20T12:20:42;47.53;;;24.48;;
22007;SDS011;11168;56.976;24.168;2022-12-20T12:25:49;50.15;;;26.00;;
22007;SDS011;11168;56.976;24.168;2022-12-20T12:28:16;51.67;;;23.13;;
22007;SDS011;11168;56.976;24.168;2022-12-20T12:31:09;47.92;;;24.40;;
22007;SDS011;11168;56.976;24.168;2022-12-20T12:33:43;47.83;;;23.45;;
22007;SDS011;11168;56.976;24.168;2022-12-20T12:44:54;41.85;;;21.77;;
22007;SDS011;11168;56.976;24.168;2022-12-20T12:47:35;42.60;;;22.10;;
22007;SDS011;11168;56.976;24.168;2022-12-20T12:50:06;44.92;;;22.38;;
22007;SDS011;11168;56.976;24.168;2022-12-20T12:52:44;41.42;;;22.30;;
22007;SDS011;11168;56.976;24.168;2022-12-20T12:55:39;39.38;;;21.55;;
22007;SDS011;11168;56.976;24.168;2022-12-20T13:00:52;43.45;;;22.60;;
22007;SDS011;11168;56.976;24.168;2022-12-20T13:11:28;40.95;;;20.67;;
22007;SDS011;11168;56.976;24.168;2022-12-20T13:19:39;36.65;;;20.55;;
22007;SDS011;11168;56.976;24.168;2022-12-20T13:27:26;39.80;;;21.80;;
22007;SDS011;11168;56.976;24.168;2022-12-20T13:38:00;39.05;;;21.63;;
22007;SDS011;11168;56.976;24.168;2022-12-20T13:40:48;38.75;;;20.08;;
22007;SDS011;11168;56.976;24.168;2022-12-20T13:51:04;37.35;;;20.25;;
22007;SDS011;11168;56.976;24.168;2022-12-20T13:53:33;35.53;;;20.33;;
22007;SDS011;11168;56.976;24.168;2022-12-20T13:58:55;37.63;;;19.50;;
22007;SDS011;11168;56.976;24.168;2022-12-20T14:01:24;47.03;;;20.70;;
22007;SDS011;11168;56.976;24.168;2022-12-20T14:03:52;34.65;;;20.15;;
22007;SDS011;11168;56.976;24.168;2022-12-20T14:06:20;38.22;;;20.08;;
22007;SDS011;11168;56.976;24.168;2022-12-20T14:08:52;34.25;;;20.05;;
22007;SDS011;11168;56.976;24.168;2022-12-20T14:11:23;41.83;;;21.10;;
22007;SDS011;11168;56.976;24.168;2022-12-20T14:13:59;39.50;;;19.90;;
22007;SDS011;11168;56.976;24.168;2022-12-20T14:16:28;38.78;;;22.30;;
22007;SDS011;11168;56.976;24.168;2022-12-20T14:19:04;42.55;;;20.55;;
22007;SDS011;11168;56.976;24.168;2022-12-20T14:21:33;48.80;;;22.75;;
22007;SDS011;11168;56.976;24.168;2022-12-20T14:24:04;39.60;;;19.88;;
22007;SDS011;11168;56.976;24.168;2022-12-20T14:26:41;40.80;;;21.75;;
22007;SDS011;11168;56.976;24.168;2022-12-20T14:29:17;46.70;;;24.17;;
22007;SDS011;11168;56.976;24.168;2022-12-20T14:31:48;46.80;;;22.63;;
22007;SDS011;11168;56.976;24.168;2022-12-20T14:34:17;46.42;;;23.23;;
22007;SDS011;11168;56.976;24.168;2022-12-20T14:42:38;51.95;;;22.80;;
22007;SDS011;11168;56.976;24.168;2022-12-20T14:47:36;51.47;;;23.77;;
22007;SDS011;11168;56.976;24.168;2022-12-20T14:50:05;54.40;;;23.65;;
22007;SDS011;11168;56.976;24.168;2022-12-20T14:52:43;49.58;;;23.67;;
22007;SDS011;11168;56.976;24.168;2022-12-20T14:55:16;51.20;;;24.50;;
22007;SDS011;11168;56.976;24.168;2022-12-20T14:57:46;59.67;;;25.77;;
22007;SDS011;11168;56.976;24.168;2022-12-20T15:13:35;67.50;;;28.45;;
22007;SDS011;11168;56.976;24.168;2022-12-20T15:16:04;69.32;;;27.55;;
22007;SDS011;11168;56.976;24.168;2022-12-20T15:18:39;76.03;;;27.52;;
22007;SDS011;11168;56.976;24.168;2022-12-20T15:21:27;71.88;;;28.05;;
22007;SDS011;11168;56.976;24.168;2022-12-20T15:24:17;78.07;;;28.05;;
22007;SDS011;11168;56.976;24.168;2022-12-20T15:26:47;80.70;;;27.85;;
22007;SDS011;11168;56.976;24.168;2022-12-20T15:29:20;80.15;;;27.40;;
22007;SDS011;11168;56.976;24.168;2022-12-20T15:31:59;76.07;;;26.98;;
22007;SDS011;11168;56.976;24.168;2022-12-20T15:34:39;77.70;;;27.52;;
22007;SDS011;11168;56.976;24.168;2022-12-20T15:37:08;79.82;;;27.90;;
22007;SDS011;11168;56.976;24.168;2022-12-20T15:39:44;88.72;;;28.70;;
22007;SDS011;11168;56.976;24.168;2022-12-20T15:42:17;89.13;;;27.98;;
22007;SDS011;11168;56.976;24.168;2022-12-20T15:44:45;94.43;;;28.90;;
22007;SDS011;11168;56.976;24.168;2022-12-20T15:47:13;83.65;;;28.70;;
22007;SDS011;11168;56.976;24.168;2022-12-20T15:49:41;81.47;;;26.92;;
22007;SDS011;11168;56.976;24.168;2022-12-20T15:52:17;97.53;;;28.02;;
22007;SDS011;11168;56.976;24.168;2022-12-20T15:54:45;111.15;;;30.17;;
22007;SDS011;11168;56.976;24.168;2022-12-20T15:57:13;92.90;;;28.70;;
22007;SDS011;11168;56.976;24.168;2022-12-20T15:59:40;114.22;;;28.60;;
22007;SDS011;11168;56.976;24.168;2022-12-20T16:02:27;92.90;;;28.70;;
22007;SDS011;11168;56.976;24.168;2022-12-20T16:04:56;108.03;;;30.42;;
22007;SDS011;11168;56.976;24.168;2022-12-20T16:07:25;104.32;;;28.75;;
22007;SDS011;11168;56.976;24.168;2022-12-20T16:09:52;94.47;;;29.85;;
22007;SDS011;11168;56.976;24.168;2022-12-20T16:12:24;109.70;;;31.33;;
22007;SDS011;11168;56.976;24.168;2022-12-20T16:14:53;98.68;;;28.90;;
22007;SDS011;11168;56.976;24.168;2022-12-20T16:17:23;100.47;;;28.35;;
22007;SDS011;11168;56.976;24.168;2022-12-20T16:19:50;115.45;;;29.60;;
22007;SDS011;11168;56.976;24.168;2022-12-20T16:22:20;112.03;;;28.83;;
22007;SDS011;11168;56.976;24.168;2022-12-20T16:24:48;91.15;;;28.15;;
22007;SDS011;11168;56.976;24.168;2022-12-20T16:27:15;105.97;;;30.35;;
22007;SDS011;11168;56.976;24.168;2022-12-20T16:29:42;101.63;;;28.17;;
22007;SDS011;11168;56.976;24.168;2022-12-20T16:32:19;101.90;;;27.48;;
22007;SDS011;11168;56.976;24.168;2022-12-20T16:34:47;116.68;;;28.88;;
22007;SDS011;11168;56.976;24.168;2022-12-20T16:37:15;108.13;;;29.73;;
22007;SDS011;11168;56.976;24.168;2022-12-20T16:39:42;111.22;;;28.33;;
22007;SDS011;11168;56.976;24.168;2022-12-20T16:42:12;102.57;;;30.77;;
22007;SDS011;11168;56.976;24.168;2022-12-20T16:44:41;109.82;;;28.70;;
22007;SDS011;11168;56.976;24.168;2022-12-20T16:47:11;114.05;;;28.73;;
22007;SDS011;11168;56.976;24.168;2022-12-20T16:49:39;111.22;;;28.02;;
22007;SDS011;11168;56.976;24.168;2022-12-20T16:52:17;130.43;;;29.00;;
22007;SDS011;11168;56.976;24.168;2022-12-20T16:54:44;133.65;;;33.72;;
22007;SDS011;11168;56.976;24.168;2022-12-20T16:57:11;135.77;;;31.92;;
22007;SDS011;11168;56.976;24.168;2022-12-20T16:59:38;136.73;;;32.30;;
22007;SDS011;11168;56.976;24.168;2022-12-20T17:02:11;121.63;;;30.83;;
22007;SDS011;11168;56.976;24.168;2022-12-20T17:04:51;109.93;;;30.50;;
22007;SDS011;11168;56.976;24.168;2022-12-20T17:07:18;117.45;;;32.30;;
22007;SDS011;11168;56.976;24.168;2022-12-20T17:09:45;115.55;;;32.70;;
22007;SDS011;11168;56.976;24.168;2022-12-20T17:12:13;116.03;;;31.88;;